SNJ79 RJTT-RJFK
Flight info
| Callsign | SNJ79 |
|---|---|
| Flight time | 1h 37m |
| Altitude | 32000 |
| Route | LAXAS Y56 TOHME Y54 TURFY Y24 SUC Y757 SPICA |
| Aircraft | B738/M-SDE2E3FGHIRWXY/LB1 |
Departure
| Time | 2026-04-24 14:15 |
|---|---|
| Airport | Tokyo Haneda International Airport (RJTT) |
Arrival
| Time | 2026-04-24 15:52 |
|---|---|
| Airport | Kagoshima Airport (RJFK) |
| Time | Latitude | Longitude | Altitude | Speed | Heading |
|---|---|---|---|---|---|
| 2026-04-24 13:18 | 35.55572 | 139.78807 | 28 ft | 0 kts | 150° |
| 2026-04-24 13:50 | 35.55576 | 139.78804 | 28 ft | 2 kts | 150° |
| 2026-04-24 13:50 | 35.55589 | 139.78795 | 28 ft | 2 kts | 150° |
| 2026-04-24 13:50 | 35.55602 | 139.78786 | 28 ft | 2 kts | 150° |
| 2026-04-24 13:50 | 35.55615 | 139.78777 | 28 ft | 2 kts | 146° |
| 2026-04-24 13:51 | 35.55627 | 139.78764 | 28 ft | 2 kts | 134° |
| 2026-04-24 13:51 | 35.55636 | 139.78751 | 28 ft | 2 kts | 123° |
| 2026-04-24 13:51 | 35.55644 | 139.78734 | 28 ft | 2 kts | 113° |
| 2026-04-24 13:51 | 35.55650 | 139.78717 | 28 ft | 2 kts | 124° |
| 2026-04-24 13:52 | 35.55659 | 139.78702 | 28 ft | 2 kts | 131° |
| 2026-04-24 13:52 | 35.55669 | 139.78690 | 28 ft | 2 kts | 140° |
| 2026-04-24 13:52 | 35.55681 | 139.78679 | 28 ft | 1 kts | 148° |
| 2026-04-24 13:52 | 35.55687 | 139.78674 | 28 ft | 0 kts | 152° |
| 2026-04-24 14:05 | 35.55685 | 139.78676 | 28 ft | 0 kts | 150° |
| 2026-04-24 14:06 | 35.55677 | 139.78683 | 28 ft | 1 kts | 139° |
| 2026-04-24 14:06 | 35.55662 | 139.78711 | 28 ft | 4 kts | 108° |
| 2026-04-24 14:06 | 35.55661 | 139.78755 | 28 ft | 6 kts | 80° |
| 2026-04-24 14:06 | 35.55679 | 139.78813 | 28 ft | 8 kts | 62° |
| 2026-04-24 14:07 | 35.55691 | 139.78889 | 28 ft | 10 kts | 109° |
| 2026-04-24 14:07 | 35.55634 | 139.78950 | 28 ft | 12 kts | 149° |
| 2026-04-24 14:07 | 35.55555 | 139.79010 | 28 ft | 14 kts | 148° |
| 2026-04-24 14:07 | 35.55460 | 139.79074 | 28 ft | 16 kts | 150° |
| 2026-04-24 14:08 | 35.55353 | 139.79149 | 28 ft | 18 kts | 149° |
| 2026-04-24 14:08 | 35.55234 | 139.79234 | 28 ft | 21 kts | 150° |
| 2026-04-24 14:08 | 35.55100 | 139.79330 | 28 ft | 23 kts | 150° |
| 2026-04-24 14:08 | 35.54951 | 139.79436 | 28 ft | 25 kts | 149° |
| 2026-04-24 14:09 | 35.54790 | 139.79552 | 28 ft | 28 kts | 149° |
| 2026-04-24 14:09 | 35.54614 | 139.79675 | 28 ft | 28 kts | 150° |
| 2026-04-24 14:09 | 35.54444 | 139.79794 | 28 ft | 27 kts | 150° |
| 2026-04-24 14:09 | 35.54282 | 139.79910 | 28 ft | 26 kts | 150° |
| 2026-04-24 14:10 | 35.54127 | 139.80019 | 28 ft | 24 kts | 150° |
| 2026-04-24 14:10 | 35.53982 | 139.80122 | 28 ft | 23 kts | 149° |
| 2026-04-24 14:10 | 35.53840 | 139.80188 | 28 ft | 21 kts | 193° |
| 2026-04-24 14:10 | 35.53695 | 139.80188 | 28 ft | 20 kts | 173° |
| 2026-04-24 14:11 | 35.53571 | 139.80249 | 28 ft | 18 kts | 150° |
| 2026-04-24 14:11 | 35.53463 | 139.80325 | 28 ft | 17 kts | 150° |
| 2026-04-24 14:11 | 35.53261 | 139.80463 | 28 ft | 18 kts | 151° |
| 2026-04-24 14:12 | 35.53138 | 139.80548 | 28 ft | 22 kts | 150° |
| 2026-04-24 14:12 | 35.52992 | 139.80557 | 28 ft | 25 kts | 221° |
| 2026-04-24 14:12 | 35.52852 | 139.80402 | 28 ft | 28 kts | 223° |
| 2026-04-24 14:12 | 35.52702 | 139.80232 | 28 ft | 29 kts | 223° |
| 2026-04-24 14:13 | 35.52553 | 139.80156 | 28 ft | 23 kts | 141° |
| 2026-04-24 14:13 | 35.52461 | 139.80276 | 28 ft | 5 kts | 131° |
| 2026-04-24 14:13 | 35.52460 | 139.80278 | 28 ft | 0 kts | 131° |
| 2026-04-24 14:14 | 35.52457 | 139.80283 | 28 ft | 4 kts | 131° |
| 2026-04-24 14:14 | 35.52490 | 139.80443 | 28 ft | 0 kts | 42° |
| 2026-04-24 14:15 | 35.52621 | 139.80591 | 28 ft | 62 kts | 44° |
| 2026-04-24 14:15 | 35.53130 | 139.81169 | 28 ft | 132 kts | 43° |
| 2026-04-24 14:15 | 35.53948 | 139.82097 | 141 ft | 180 kts | 43° |
| 2026-04-24 14:15 | 35.54820 | 139.83101 | 1134 ft | 170 kts | 45° |
| 2026-04-24 14:16 | 35.55637 | 139.84019 | 1980 ft | 155 kts | 47° |
| 2026-04-24 14:16 | 35.56290 | 139.85083 | 2379 ft | 166 kts | 62° |
| 2026-04-24 14:16 | 35.56710 | 139.86459 | 2825 ft | 175 kts | 77° |
| 2026-04-24 14:17 | 35.56229 | 139.89435 | 3514 ft | 210 kts | 108° |
| 2026-04-24 14:17 | 35.55654 | 139.91225 | 3746 ft | 232 kts | 107° |
| 2026-04-24 14:17 | 35.54121 | 139.94746 | 5132 ft | 238 kts | 139° |
| 2026-04-24 14:18 | 35.52623 | 139.95627 | 5597 ft | 252 kts | 169° |
| 2026-04-24 14:18 | 35.50808 | 139.95592 | 5986 ft | 266 kts | 190° |
| 2026-04-24 14:18 | 35.48932 | 139.95171 | 6435 ft | 279 kts | 192° |
| 2026-04-24 14:18 | 35.47007 | 139.94714 | 6959 ft | 288 kts | 192° |
| 2026-04-24 14:19 | 35.45025 | 139.94252 | 7650 ft | 290 kts | 192° |
| 2026-04-24 14:19 | 35.43033 | 139.93788 | 8292 ft | 293 kts | 192° |
| 2026-04-24 14:19 | 35.41008 | 139.93321 | 8933 ft | 297 kts | 192° |
| 2026-04-24 14:19 | 35.38970 | 139.92845 | 9525 ft | 302 kts | 192° |
| 2026-04-24 14:20 | 35.37011 | 139.91983 | 10190 ft | 300 kts | 213° |
| 2026-04-24 14:20 | 35.35429 | 139.90297 | 10555 ft | 307 kts | 234° |
| 2026-04-24 14:20 | 35.34251 | 139.88089 | 10916 ft | 318 kts | 242° |
| 2026-04-24 14:20 | 35.33145 | 139.85673 | 11251 ft | 331 kts | 244° |
| 2026-04-24 14:21 | 35.32005 | 139.83164 | 11592 ft | 344 kts | 243° |
| 2026-04-24 14:21 | 35.30785 | 139.80557 | 11892 ft | 359 kts | 243° |
| 2026-04-24 14:21 | 35.29497 | 139.77875 | 12266 ft | 370 kts | 242° |
| 2026-04-24 14:21 | 35.28185 | 139.75183 | 12985 ft | 370 kts | 242° |
| 2026-04-24 14:22 | 35.26875 | 139.72510 | 13693 ft | 370 kts | 242° |
| 2026-04-24 14:22 | 35.25554 | 139.69815 | 14419 ft | 370 kts | 242° |
| 2026-04-24 14:22 | 35.22913 | 139.64427 | 15886 ft | 370 kts | 241° |
| 2026-04-24 14:23 | 35.21586 | 139.61716 | 16451 ft | 374 kts | 241° |
| 2026-04-24 14:23 | 35.20263 | 139.59018 | 17089 ft | 375 kts | 241° |
| 2026-04-24 14:23 | 35.18916 | 139.56276 | 17727 ft | 376 kts | 241° |
| 2026-04-24 14:23 | 35.17560 | 139.53516 | 18366 ft | 377 kts | 241° |
| 2026-04-24 14:24 | 35.16229 | 139.50806 | 18938 ft | 378 kts | 241° |
| 2026-04-24 14:24 | 35.14870 | 139.48038 | 19601 ft | 378 kts | 240° |
| 2026-04-24 14:24 | 35.13511 | 139.45276 | 20144 ft | 380 kts | 240° |
| 2026-04-24 14:24 | 35.12156 | 139.42526 | 20697 ft | 382 kts | 240° |
| 2026-04-24 14:25 | 35.10781 | 139.39737 | 21230 ft | 383 kts | 240° |
| 2026-04-24 14:25 | 35.09391 | 139.36919 | 21422 ft | 394 kts | 240° |
| 2026-04-24 14:25 | 35.07958 | 139.34010 | 21593 ft | 404 kts | 239° |
| 2026-04-24 14:25 | 35.06506 | 139.31071 | 22081 ft | 407 kts | 239° |
| 2026-04-24 14:26 | 35.05078 | 139.28090 | 22577 ft | 408 kts | 241° |
| 2026-04-24 14:26 | 35.03827 | 139.24994 | 23082 ft | 409 kts | 246° |
| 2026-04-24 14:26 | 35.02842 | 139.21732 | 23570 ft | 411 kts | 251° |
| 2026-04-24 14:26 | 35.02094 | 139.18390 | 24106 ft | 411 kts | 255° |
| 2026-04-24 14:27 | 35.01472 | 139.15012 | 24718 ft | 408 kts | 256° |
| 2026-04-24 14:27 | 35.00913 | 139.11670 | 25359 ft | 405 kts | 256° |
| 2026-04-24 14:27 | 35.00367 | 139.08316 | 25812 ft | 405 kts | 257° |
| 2026-04-24 14:27 | 34.99814 | 139.04910 | 26257 ft | 406 kts | 256° |
| 2026-04-24 14:28 | 34.99266 | 139.01562 | 26893 ft | 401 kts | 256° |
| 2026-04-24 14:28 | 34.98782 | 138.98308 | 27983 ft | 385 kts | 258° |
| 2026-04-24 14:28 | 34.98503 | 138.95241 | 29022 ft | 371 kts | 262° |
| 2026-04-24 14:28 | 34.98338 | 138.92191 | 29894 ft | 359 kts | 262° |
| 2026-04-24 14:29 | 34.98213 | 138.89217 | 30465 ft | 355 kts | 262° |
| 2026-04-24 14:29 | 34.98088 | 138.86217 | 30829 ft | 354 kts | 262° |
| 2026-04-24 14:29 | 34.97955 | 138.83229 | 31209 ft | 353 kts | 262° |
| 2026-04-24 14:29 | 34.97815 | 138.80244 | 31712 ft | 349 kts | 261° |
| 2026-04-24 14:30 | 34.97722 | 138.78293 | 32011 ft | 346 kts | 261° |
| 2026-04-24 14:30 | 34.97364 | 138.71397 | 32101 ft | 355 kts | 261° |
| 2026-04-24 14:31 | 34.97048 | 138.65399 | 32100 ft | 356 kts | 262° |
| 2026-04-24 14:31 | 34.96722 | 138.59413 | 32103 ft | 356 kts | 262° |
| 2026-04-24 14:32 | 34.95750 | 138.53706 | 32103 ft | 350 kts | 245° |
| 2026-04-24 14:32 | 34.93310 | 138.48532 | 32100 ft | 352 kts | 241° |
| 2026-04-24 14:33 | 34.90965 | 138.43559 | 32093 ft | 354 kts | 243° |
| 2026-04-24 14:33 | 34.88669 | 138.38261 | 32088 ft | 354 kts | 244° |
| 2026-04-24 14:34 | 34.86430 | 138.32939 | 32090 ft | 355 kts | 244° |
| 2026-04-24 14:34 | 34.84227 | 138.27663 | 32089 ft | 354 kts | 244° |
| 2026-04-24 14:35 | 34.81987 | 138.22308 | 32089 ft | 355 kts | 244° |
| 2026-04-24 14:35 | 34.79747 | 138.16957 | 32083 ft | 354 kts | 244° |
| 2026-04-24 14:36 | 34.77529 | 138.11653 | 32087 ft | 355 kts | 244° |
| 2026-04-24 14:36 | 34.75270 | 138.06271 | 32081 ft | 357 kts | 244° |
| 2026-04-24 14:37 | 34.73025 | 138.00938 | 32085 ft | 356 kts | 244° |
| 2026-04-24 14:37 | 34.70771 | 137.95592 | 32078 ft | 357 kts | 245° |
| 2026-04-24 14:38 | 34.68510 | 137.90233 | 32075 ft | 354 kts | 244° |
| 2026-04-24 14:38 | 34.66307 | 137.85022 | 32078 ft | 357 kts | 244° |
| 2026-04-24 14:39 | 34.64055 | 137.79704 | 32077 ft | 356 kts | 245° |
| 2026-04-24 14:39 | 34.61791 | 137.74382 | 32071 ft | 354 kts | 244° |
| 2026-04-24 14:40 | 34.59524 | 137.69040 | 32074 ft | 355 kts | 244° |
| 2026-04-24 14:40 | 34.57269 | 137.63734 | 32072 ft | 355 kts | 244° |
| 2026-04-24 14:41 | 34.54989 | 137.58375 | 32065 ft | 356 kts | 244° |
| 2026-04-24 14:41 | 34.52727 | 137.53078 | 32070 ft | 355 kts | 244° |
| 2026-04-24 14:42 | 34.50458 | 137.47771 | 32070 ft | 356 kts | 244° |
| 2026-04-24 14:42 | 34.48183 | 137.42453 | 32075 ft | 356 kts | 244° |
| 2026-04-24 14:43 | 34.45903 | 137.37126 | 32069 ft | 355 kts | 245° |
| 2026-04-24 14:43 | 34.43637 | 137.31842 | 32071 ft | 356 kts | 243° |
| 2026-04-24 14:44 | 34.41343 | 137.26512 | 32062 ft | 355 kts | 244° |
| 2026-04-24 14:44 | 34.39072 | 137.21243 | 32064 ft | 355 kts | 244° |
| 2026-04-24 14:45 | 34.36778 | 137.15926 | 32071 ft | 355 kts | 243° |
| 2026-04-24 14:45 | 34.34497 | 137.10643 | 32075 ft | 356 kts | 244° |
| 2026-04-24 14:46 | 34.32214 | 137.05356 | 32070 ft | 354 kts | 244° |
| 2026-04-24 14:46 | 34.29937 | 137.00104 | 32073 ft | 355 kts | 243° |
| 2026-04-24 14:47 | 34.27705 | 136.94965 | 32074 ft | 355 kts | 244° |
| 2026-04-24 14:47 | 34.25481 | 136.89848 | 32065 ft | 355 kts | 244° |
| 2026-04-24 14:48 | 34.23243 | 136.84705 | 32074 ft | 357 kts | 243° |
| 2026-04-24 14:48 | 34.21001 | 136.79564 | 32064 ft | 356 kts | 243° |
| 2026-04-24 14:49 | 34.18681 | 136.74252 | 32072 ft | 358 kts | 244° |
| 2026-04-24 14:49 | 34.16421 | 136.69081 | 32065 ft | 357 kts | 244° |
| 2026-04-24 14:50 | 34.14146 | 136.63887 | 32072 ft | 358 kts | 244° |
| 2026-04-24 14:50 | 34.11882 | 136.58720 | 32066 ft | 358 kts | 244° |
| 2026-04-24 14:51 | 34.09550 | 136.53412 | 32065 ft | 359 kts | 244° |
| 2026-04-24 14:51 | 34.07230 | 136.48141 | 32067 ft | 356 kts | 244° |
| 2026-04-24 14:52 | 34.04894 | 136.42839 | 32059 ft | 359 kts | 244° |
| 2026-04-24 14:52 | 34.02649 | 136.37753 | 32066 ft | 359 kts | 244° |
| 2026-04-24 14:53 | 34.00303 | 136.32440 | 32058 ft | 359 kts | 244° |
| 2026-04-24 14:53 | 33.97970 | 136.27170 | 32057 ft | 359 kts | 244° |
| 2026-04-24 14:54 | 33.95626 | 136.21883 | 32055 ft | 359 kts | 245° |
| 2026-04-24 14:54 | 33.93270 | 136.16571 | 32049 ft | 360 kts | 244° |
| 2026-04-24 14:55 | 33.91400 | 136.12361 | 32053 ft | 360 kts | 244° |
| 2026-04-24 14:55 | 33.88705 | 136.06308 | 32049 ft | 360 kts | 245° |
| 2026-04-24 14:56 | 33.86326 | 136.00981 | 32050 ft | 360 kts | 245° |
| 2026-04-24 14:56 | 33.83958 | 135.95680 | 32051 ft | 361 kts | 245° |
| 2026-04-24 14:57 | 33.81590 | 135.90379 | 32041 ft | 360 kts | 245° |
| 2026-04-24 14:57 | 33.79275 | 135.85211 | 32045 ft | 357 kts | 244° |
| 2026-04-24 14:58 | 33.76907 | 135.79935 | 32043 ft | 358 kts | 245° |
| 2026-04-24 14:58 | 33.74597 | 135.74795 | 32047 ft | 357 kts | 245° |
| 2026-04-24 14:59 | 33.72268 | 135.69624 | 32045 ft | 357 kts | 245° |
| 2026-04-24 14:59 | 33.69909 | 135.64384 | 32046 ft | 358 kts | 245° |
| 2026-04-24 15:00 | 33.67547 | 135.59146 | 32051 ft | 356 kts | 245° |
| 2026-04-24 15:00 | 33.65204 | 135.53958 | 32051 ft | 356 kts | 244° |
| 2026-04-24 15:01 | 33.62831 | 135.48717 | 32049 ft | 356 kts | 245° |
| 2026-04-24 15:01 | 33.60482 | 135.43532 | 32047 ft | 355 kts | 244° |
| 2026-04-24 15:02 | 33.58140 | 135.38365 | 32044 ft | 355 kts | 244° |
| 2026-04-24 15:02 | 33.55781 | 135.33171 | 32045 ft | 355 kts | 244° |
| 2026-04-24 15:03 | 33.53407 | 135.27971 | 32041 ft | 356 kts | 244° |
| 2026-04-24 15:03 | 33.51076 | 135.22868 | 32052 ft | 355 kts | 244° |
| 2026-04-24 15:04 | 33.48754 | 135.17784 | 32050 ft | 353 kts | 244° |
| 2026-04-24 15:04 | 33.46413 | 135.12657 | 32049 ft | 353 kts | 245° |
| 2026-04-24 15:05 | 33.44054 | 135.07507 | 32047 ft | 353 kts | 244° |
| 2026-04-24 15:05 | 33.41689 | 135.02362 | 32047 ft | 353 kts | 245° |
| 2026-04-24 15:06 | 33.39046 | 134.97496 | 32048 ft | 358 kts | 238° |
| 2026-04-24 15:06 | 33.35910 | 134.92864 | 32043 ft | 358 kts | 236° |
| 2026-04-24 15:07 | 33.32746 | 134.88310 | 32039 ft | 359 kts | 237° |
| 2026-04-24 15:07 | 33.29571 | 134.83701 | 32026 ft | 360 kts | 237° |
| 2026-04-24 15:08 | 33.26396 | 134.79069 | 32024 ft | 359 kts | 237° |
| 2026-04-24 15:08 | 33.23234 | 134.74457 | 32025 ft | 357 kts | 237° |
| 2026-04-24 15:09 | 33.20058 | 134.69820 | 32027 ft | 360 kts | 237° |
| 2026-04-24 15:09 | 33.17151 | 134.65245 | 32024 ft | 354 kts | 243° |
| 2026-04-24 15:10 | 33.15136 | 134.59872 | 32026 ft | 353 kts | 252° |
| 2026-04-24 15:10 | 33.13744 | 134.54297 | 32029 ft | 352 kts | 253° |
| 2026-04-24 15:11 | 33.12430 | 134.48798 | 32027 ft | 351 kts | 253° |
| 2026-04-24 15:11 | 33.11079 | 134.43222 | 32026 ft | 353 kts | 255° |
| 2026-04-24 15:12 | 33.09763 | 134.37856 | 32027 ft | 351 kts | 254° |
| 2026-04-24 15:12 | 33.07724 | 134.29604 | 32026 ft | 352 kts | 254° |
| 2026-04-24 15:13 | 33.06332 | 134.24004 | 32031 ft | 353 kts | 254° |
| 2026-04-24 15:13 | 33.04985 | 134.18484 | 32029 ft | 350 kts | 254° |
| 2026-04-24 15:14 | 33.03678 | 134.13045 | 32024 ft | 353 kts | 253° |
| 2026-04-24 15:14 | 33.02328 | 134.07491 | 32027 ft | 351 kts | 254° |
| 2026-04-24 15:15 | 33.00975 | 134.01938 | 32031 ft | 354 kts | 253° |
| 2026-04-24 15:15 | 32.99652 | 133.96503 | 32038 ft | 352 kts | 254° |
| 2026-04-24 15:16 | 32.98328 | 133.91061 | 32037 ft | 352 kts | 253° |
| 2026-04-24 15:16 | 32.96945 | 133.85451 | 32026 ft | 354 kts | 254° |
| 2026-04-24 15:17 | 32.95576 | 133.79869 | 32024 ft | 352 kts | 254° |
| 2026-04-24 15:17 | 32.94210 | 133.74303 | 32026 ft | 351 kts | 255° |
| 2026-04-24 15:18 | 32.92840 | 133.68735 | 32033 ft | 351 kts | 255° |
| 2026-04-24 15:18 | 32.91476 | 133.63187 | 32030 ft | 349 kts | 254° |
| 2026-04-24 15:19 | 32.90097 | 133.57626 | 32031 ft | 350 kts | 254° |
| 2026-04-24 15:19 | 32.88747 | 133.52199 | 32036 ft | 350 kts | 253° |
| 2026-04-24 15:20 | 32.87380 | 133.46670 | 32029 ft | 349 kts | 253° |
| 2026-04-24 15:20 | 32.85990 | 133.41104 | 32036 ft | 352 kts | 255° |
| 2026-04-24 15:21 | 32.84611 | 133.35585 | 32035 ft | 351 kts | 254° |
| 2026-04-24 15:21 | 32.83267 | 133.30116 | 32033 ft | 348 kts | 252° |
| 2026-04-24 15:22 | 32.81882 | 133.24594 | 32038 ft | 350 kts | 254° |
| 2026-04-24 15:23 | 32.79793 | 133.16290 | 32031 ft | 347 kts | 253° |
| 2026-04-24 15:23 | 32.77710 | 133.08031 | 32036 ft | 349 kts | 254° |
| 2026-04-24 15:25 | 32.73698 | 132.95705 | 32036 ft | 349 kts | 244° |
| 2026-04-24 15:26 | 32.66853 | 132.82533 | 32036 ft | 351 kts | 242° |
| 2026-04-24 15:27 | 32.63093 | 132.75211 | 32037 ft | 337 kts | 243° |
| 2026-04-24 15:27 | 32.59468 | 132.68131 | 32031 ft | 339 kts | 242° |
| 2026-04-24 15:29 | 32.52129 | 132.53862 | 32026 ft | 339 kts | 242° |
| 2026-04-24 15:31 | 32.43532 | 132.37219 | 32025 ft | 341 kts | 242° |
| 2026-04-24 15:33 | 32.33883 | 132.18619 | 31095 ft | 332 kts | 242° |
| 2026-04-24 15:33 | 32.30217 | 132.11548 | 28776 ft | 345 kts | 243° |
| 2026-04-24 15:34 | 32.27677 | 132.06679 | 26939 ft | 356 kts | 243° |
| 2026-04-24 15:35 | 32.23687 | 131.99042 | 24430 ft | 372 kts | 242° |
| 2026-04-24 15:35 | 32.20914 | 131.93735 | 23046 ft | 385 kts | 241° |
| 2026-04-24 15:35 | 32.19520 | 131.91077 | 22332 ft | 384 kts | 242° |
| 2026-04-24 15:36 | 32.18117 | 131.88403 | 21603 ft | 384 kts | 241° |
| 2026-04-24 15:36 | 32.15324 | 131.83086 | 20254 ft | 380 kts | 241° |
| 2026-04-24 15:36 | 32.13942 | 131.80456 | 20054 ft | 374 kts | 241° |
| 2026-04-24 15:37 | 32.12566 | 131.77837 | 20022 ft | 377 kts | 241° |
| 2026-04-24 15:37 | 32.11194 | 131.75226 | 20023 ft | 379 kts | 241° |
| 2026-04-24 15:37 | 32.09795 | 131.72565 | 20021 ft | 380 kts | 241° |
| 2026-04-24 15:37 | 32.08413 | 131.69939 | 19952 ft | 376 kts | 241° |
| 2026-04-24 15:38 | 32.07040 | 131.67333 | 19534 ft | 371 kts | 241° |
| 2026-04-24 15:38 | 32.05693 | 131.64777 | 18789 ft | 372 kts | 241° |
| 2026-04-24 15:38 | 32.04327 | 131.62183 | 18019 ft | 374 kts | 241° |
| 2026-04-24 15:38 | 32.03038 | 131.59735 | 17323 ft | 374 kts | 241° |
| 2026-04-24 15:39 | 32.01681 | 131.57159 | 16626 ft | 374 kts | 240° |
| 2026-04-24 15:39 | 32.00321 | 131.54582 | 15913 ft | 374 kts | 240° |
| 2026-04-24 15:39 | 31.98933 | 131.51956 | 15213 ft | 373 kts | 240° |
| 2026-04-24 15:39 | 31.97575 | 131.49387 | 14536 ft | 372 kts | 240° |
| 2026-04-24 15:40 | 31.96214 | 131.46811 | 13865 ft | 371 kts | 240° |
| 2026-04-24 15:40 | 31.94868 | 131.44246 | 13111 ft | 372 kts | 240° |
| 2026-04-24 15:40 | 31.93498 | 131.41666 | 12409 ft | 372 kts | 239° |
| 2026-04-24 15:40 | 31.92130 | 131.39111 | 11736 ft | 370 kts | 239° |
| 2026-04-24 15:41 | 31.90756 | 131.36554 | 11232 ft | 364 kts | 238° |
| 2026-04-24 15:41 | 31.89420 | 131.34067 | 10965 ft | 352 kts | 238° |
| 2026-04-24 15:41 | 31.88146 | 131.31686 | 10821 ft | 337 kts | 238° |
| 2026-04-24 15:41 | 31.86935 | 131.29422 | 10663 ft | 320 kts | 238° |
| 2026-04-24 15:42 | 31.85785 | 131.27277 | 10499 ft | 305 kts | 237° |
| 2026-04-24 15:42 | 31.84682 | 131.25221 | 10345 ft | 290 kts | 237° |
| 2026-04-24 15:42 | 31.83629 | 131.23261 | 10191 ft | 277 kts | 237° |
| 2026-04-24 15:42 | 31.82604 | 131.21349 | 9916 ft | 270 kts | 236° |
| 2026-04-24 15:43 | 31.81609 | 131.19485 | 9509 ft | 277 kts | 237° |
| 2026-04-24 15:43 | 31.80575 | 131.17545 | 9131 ft | 278 kts | 237° |
| 2026-04-24 15:43 | 31.79551 | 131.15630 | 8744 ft | 275 kts | 237° |
| 2026-04-24 15:43 | 31.78543 | 131.13750 | 8385 ft | 271 kts | 236° |
| 2026-04-24 15:44 | 31.77547 | 131.11893 | 8011 ft | 268 kts | 237° |
| 2026-04-24 15:44 | 31.76572 | 131.10075 | 7665 ft | 264 kts | 236° |
| 2026-04-24 15:44 | 31.75585 | 131.08244 | 7291 ft | 261 kts | 236° |
| 2026-04-24 15:44 | 31.74630 | 131.06473 | 6939 ft | 257 kts | 237° |
| 2026-04-24 15:45 | 31.73682 | 131.04706 | 6591 ft | 251 kts | 237° |
| 2026-04-24 15:45 | 31.72758 | 131.02989 | 6279 ft | 244 kts | 237° |
| 2026-04-24 15:45 | 31.71882 | 131.01341 | 5936 ft | 239 kts | 237° |
| 2026-04-24 15:45 | 31.71012 | 130.99710 | 5640 ft | 231 kts | 237° |
| 2026-04-24 15:46 | 31.70163 | 130.98120 | 5323 ft | 225 kts | 237° |
| 2026-04-24 15:46 | 31.69335 | 130.96591 | 5007 ft | 222 kts | 237° |
| 2026-04-24 15:46 | 31.68514 | 130.95073 | 4700 ft | 221 kts | 237° |
| 2026-04-24 15:46 | 31.67700 | 130.93564 | 4431 ft | 217 kts | 237° |
| 2026-04-24 15:47 | 31.66979 | 130.92101 | 4318 ft | 207 kts | 245° |
| 2026-04-24 15:47 | 31.66584 | 130.90517 | 4169 ft | 199 kts | 260° |
| 2026-04-24 15:47 | 31.66355 | 130.88945 | 4100 ft | 193 kts | 260° |
| 2026-04-24 15:47 | 31.66106 | 130.87396 | 4036 ft | 190 kts | 262° |
| 2026-04-24 15:48 | 31.65997 | 130.85883 | 3961 ft | 183 kts | 278° |
| 2026-04-24 15:48 | 31.66431 | 130.84495 | 3918 ft | 183 kts | 300° |
| 2026-04-24 15:48 | 31.66965 | 130.83145 | 3789 ft | 180 kts | 295° |
| 2026-04-24 15:48 | 31.67366 | 130.81751 | 3543 ft | 180 kts | 290° |
| 2026-04-24 15:49 | 31.67853 | 130.80412 | 3244 ft | 179 kts | 310° |
| 2026-04-24 15:49 | 31.68817 | 130.79602 | 2898 ft | 171 kts | 350° |
| 2026-04-24 15:49 | 31.69958 | 130.79332 | 2753 ft | 162 kts | 346° |
| 2026-04-24 15:49 | 31.70903 | 130.78561 | 2821 ft | 174 kts | 320° |
| 2026-04-24 15:50 | 31.71918 | 130.77765 | 2550 ft | 175 kts | 341° |
| 2026-04-24 15:50 | 31.72969 | 130.77097 | 2291 ft | 168 kts | 330° |
| 2026-04-24 15:50 | 31.73919 | 130.76302 | 2083 ft | 169 kts | 332° |
| 2026-04-24 15:50 | 31.74939 | 130.75691 | 1856 ft | 161 kts | 340° |
| 2026-04-24 15:51 | 31.75922 | 130.75021 | 1624 ft | 164 kts | 331° |
| 2026-04-24 15:51 | 31.76924 | 130.74358 | 1418 ft | 167 kts | 334° |
| 2026-04-24 15:51 | 31.77872 | 130.73607 | 1190 ft | 160 kts | 328° |
| 2026-04-24 15:51 | 31.78800 | 130.72929 | 1000 ft | 156 kts | 338° |
| 2026-04-24 15:52 | 31.79658 | 130.72394 | 879 ft | 154 kts | 333° |
| 2026-04-24 15:52 | 31.80469 | 130.71854 | 895 ft | 96 kts | 331° |
| 2026-04-24 15:52 | 31.80871 | 130.71579 | 894 ft | 51 kts | 330° |
| 2026-04-24 15:52 | 31.81116 | 130.71413 | 893 ft | 28 kts | 328° |
| 2026-04-24 15:53 | 31.81278 | 130.71298 | 893 ft | 34 kts | 330° |
| 2026-04-24 15:53 | 31.81463 | 130.71130 | 897 ft | 29 kts | 298° |
| 2026-04-24 15:53 | 31.81439 | 130.71014 | 903 ft | 12 kts | 213° |
| 2026-04-24 15:53 | 31.81367 | 130.71024 | 904 ft | 10 kts | 156° |
| 2026-04-24 15:54 | 31.81304 | 130.71059 | 903 ft | 10 kts | 152° |
| 2026-04-24 15:54 | 31.81243 | 130.71098 | 903 ft | 10 kts | 150° |
| 2026-04-24 15:54 | 31.81148 | 130.71164 | 902 ft | 21 kts | 148° |
| 2026-04-24 15:54 | 31.81003 | 130.71265 | 901 ft | 24 kts | 150° |
| 2026-04-24 15:55 | 31.80857 | 130.71362 | 901 ft | 23 kts | 150° |
| 2026-04-24 15:55 | 31.80721 | 130.71454 | 900 ft | 22 kts | 150° |
| 2026-04-24 15:55 | 31.80584 | 130.71544 | 898 ft | 22 kts | 151° |
| 2026-04-24 15:55 | 31.80449 | 130.71632 | 896 ft | 22 kts | 150° |
| 2026-04-24 15:56 | 31.80414 | 130.71657 | 896 ft | 0 kts | 149° |
| 2026-04-24 15:56 | 31.80404 | 130.71663 | 896 ft | 2 kts | 149° |
| 2026-04-24 15:56 | 31.80388 | 130.71675 | 896 ft | 2 kts | 148° |
| 2026-04-24 15:56 | 31.80373 | 130.71686 | 895 ft | 2 kts | 147° |
| 2026-04-24 15:57 | 31.80357 | 130.71698 | 895 ft | 2 kts | 147° |
| 2026-04-24 15:57 | 31.80340 | 130.71703 | 895 ft | 2 kts | 182° |
| 2026-04-24 15:57 | 31.80324 | 130.71695 | 895 ft | 2 kts | 219° |
| 2026-04-24 15:57 | 31.80310 | 130.71677 | 896 ft | 3 kts | 232° |
| 2026-04-24 15:58 | 31.80295 | 130.71651 | 896 ft | 3 kts | 238° |
| 2026-04-24 15:58 | 31.80282 | 130.71625 | 897 ft | 3 kts | 240° |
| 2026-04-24 15:58 | 31.80270 | 130.71600 | 897 ft | 3 kts | 240° |
| 2026-04-24 15:58 | 31.80263 | 130.71585 | 898 ft | 0 kts | 241° |
| 2026-04-24 15:59 | 31.80262 | 130.71585 | 898 ft | 0 kts | 241° |
| 2026-04-24 15:59 | 31.80260 | 130.71580 | 898 ft | 0 kts | 242° |